createdAt,value
2019-02-18T00:00:17.461Z,98214.77
2019-02-18T00:02:56.888Z,98218.94
2019-02-18T00:05:23.588Z,98217.78
2019-02-18T00:07:50.284Z,98218.47
2019-02-18T00:10:17.004Z,98222.64
2019-02-18T00:12:44.616Z,98220.16
2019-02-18T00:15:11.418Z,98218.01
2019-02-18T00:17:38.140Z,98225.02
2019-02-18T00:20:05.792Z,98217.62
2019-02-18T00:22:32.358Z,98215.32
2019-02-18T00:24:59.193Z,98215.36
2019-02-18T00:27:25.743Z,98216.55
2019-02-18T00:29:52.485Z,98221.22
2019-02-18T00:32:19.259Z,98217.09
2019-02-18T00:34:45.951Z,98218.09
2019-02-18T00:37:12.603Z,98217.77
2019-02-18T00:39:39.308Z,98221.94
2019-02-18T00:42:07.123Z,98220.79
2019-02-18T00:44:33.940Z,98214.00
2019-02-18T00:47:00.587Z,98214.00
2019-02-18T00:49:27.320Z,98217.02
2019-02-18T00:51:54.076Z,98219.06
2019-02-18T00:54:20.839Z,98215.58
2019-02-18T00:56:47.411Z,98216.58
2019-02-18T00:59:14.152Z,98218.23
2019-02-18T01:01:40.962Z,98215.42
2019-02-18T01:04:07.809Z,98221.58
2019-02-18T01:06:34.543Z,98217.77
2019-02-18T01:09:03.278Z,98221.93
2019-02-18T01:11:29.947Z,98217.30
2019-02-18T01:13:56.715Z,98223.44
2019-02-18T01:16:23.476Z,98216.76
2019-02-18T01:18:50.190Z,98217.63
2019-02-18T01:21:16.871Z,98212.66
2019-02-18T01:23:43.575Z,98207.84
2019-02-18T01:26:10.408Z,98211.86
2019-02-18T01:28:37.097Z,98209.74
2019-02-18T01:31:03.764Z,98206.61
2019-02-18T01:33:30.620Z,98209.45
2019-02-18T01:35:57.333Z,98203.52
2019-02-18T01:38:24.121Z,98201.36
2019-02-18T01:40:51.015Z,98194.89
2019-02-18T01:43:17.691Z,98199.06
2019-02-18T01:45:44.528Z,98189.11
2019-02-18T01:48:12.324Z,98184.97
2019-02-18T01:50:39.008Z,98188.63
2019-02-18T01:53:05.831Z,98192.66
2019-02-18T01:55:32.534Z,98193.33
2019-02-18T01:58:00.355Z,98187.69
2019-02-18T02:00:27.135Z,98182.70
2019-02-18T02:02:53.843Z,98181.38
2019-02-18T02:05:21.154Z,98179.90
2019-02-18T02:07:55.904Z,98175.91
2019-02-18T02:10:16.547Z,98167.61
2019-02-18T02:12:43.249Z,98174.11
2019-02-18T02:15:22.687Z,98167.14
2019-02-18T02:17:49.620Z,98160.88
2019-02-18T02:20:16.323Z,98157.58
2019-02-18T02:22:43.127Z,98157.44
2019-02-18T02:25:09.786Z,98151.12
2019-02-18T02:27:36.609Z,98151.80
2019-02-18T02:30:04.111Z,98151.97
2019-02-18T02:32:30.945Z,98145.51
2019-02-18T02:34:57.705Z,98144.36
2019-02-18T02:37:25.955Z,98140.22
2019-02-18T02:39:52.628Z,98146.22
2019-02-18T02:42:22.457Z,98140.40
2019-02-18T02:44:49.276Z,98138.09
2019-02-18T02:47:16.070Z,98138.77
2019-02-18T02:49:43.830Z,98136.98
2019-02-18T02:52:10.505Z,98141.14
2019-02-18T02:54:37.396Z,98140.13
2019-02-18T02:57:04.076Z,98141.14
2019-02-18T02:59:30.909Z,98139.69
2019-02-18T03:01:57.845Z,98133.05
2019-02-18T03:04:24.567Z,98134.73
2019-02-18T03:06:51.422Z,98134.08
2019-02-18T03:09:18.253Z,98136.91
2019-02-18T03:11:44.944Z,98134.94
2019-02-18T03:14:11.765Z,98126.50
2019-02-18T03:16:38.883Z,98122.84
2019-02-18T03:19:05.682Z,98133.46
2019-02-18T03:21:32.425Z,98131.00
2019-02-18T03:23:59.334Z,98131.69
2019-02-18T03:26:26.067Z,98126.72
2019-02-18T03:29:29.420Z,98129.55
2019-02-18T03:31:56.208Z,98129.27
2019-02-18T03:34:48.620Z,98134.59
2019-02-18T03:37:15.189Z,98129.61
2019-02-18T03:39:41.985Z,98125.98
2019-02-18T03:42:08.681Z,98126.83
2019-02-18T03:44:35.491Z,98129.33
2019-02-18T03:47:02.092Z,98128.18
2019-02-18T03:49:28.813Z,98124.55
2019-02-18T03:51:55.476Z,98129.70
2019-02-18T03:54:22.315Z,98128.72
2019-02-18T03:56:49.149Z,98130.88
2019-02-18T03:59:15.905Z,98132.88
2019-02-18T04:01:42.723Z,98132.25
2019-02-18T04:04:09.825Z,98132.93
2019-02-18T04:06:36.672Z,98131.78
2019-02-18T04:09:04.842Z,98133.78
2019-02-18T04:11:31.584Z,98135.10
2019-02-18T04:13:58.454Z,98142.41
2019-02-18T04:16:27.565Z,98136.95
2019-02-18T04:18:54.226Z,98136.80
2019-02-18T04:21:21.007Z,98136.97
2019-02-18T04:23:47.757Z,98142.77
2019-02-18T04:26:14.505Z,98138.47
2019-02-18T04:28:41.332Z,98147.25
2019-02-18T04:31:08.123Z,98141.30
2019-02-18T04:33:35.011Z,98137.81
2019-02-18T04:36:01.821Z,98134.50
2019-02-18T04:38:28.605Z,98136.33
2019-02-18T04:40:55.262Z,98134.67
2019-02-18T04:43:22.035Z,98134.34
2019-02-18T04:45:48.823Z,98137.50
2019-02-18T04:48:15.817Z,98138.00
2019-02-18T04:50:42.758Z,98136.02
2019-02-18T04:53:09.364Z,98135.57
2019-02-18T04:55:36.148Z,98138.39
2019-02-18T04:58:05.858Z,98139.73
2019-02-18T05:00:31.499Z,98143.38
2019-02-18T05:02:58.307Z,98142.40
2019-02-18T05:05:26.117Z,98143.56
2019-02-18T05:07:53.052Z,98146.03
2019-02-18T05:10:20.930Z,98140.72
2019-02-18T05:12:47.725Z,98136.75
2019-02-18T05:15:14.521Z,98139.23
2019-02-18T05:17:41.275Z,98136.58
2019-02-18T05:20:18.970Z,98131.45
2019-02-18T05:22:45.883Z,98131.13
2019-02-18T05:25:13.081Z,98131.30
2019-02-18T05:27:42.393Z,98131.63
2019-02-18T05:30:09.275Z,98130.16
2019-02-18T05:32:36.239Z,98132.80
2019-02-18T05:35:03.189Z,98128.17
2019-02-18T05:37:30.348Z,98127.52
2019-02-18T05:39:57.225Z,98134.48
2019-02-18T05:42:24.074Z,98137.47
2019-02-18T05:44:51.008Z,98136.84
2019-02-18T05:47:18.931Z,98133.97
2019-02-18T05:49:45.704Z,98137.13
2019-02-18T05:52:13.488Z,98136.84
2019-02-18T05:54:40.242Z,98139.16
2019-02-18T05:57:06.925Z,98139.12
2019-02-18T05:59:33.698Z,98145.79
2019-02-18T06:02:00.400Z,98142.44
2019-02-18T06:04:29.138Z,98140.48
2019-02-18T06:06:55.893Z,98133.70
2019-02-18T06:09:29.799Z,98135.52
2019-02-18T06:11:52.223Z,98131.22
2019-02-18T06:14:18.973Z,98133.55
2019-02-18T06:16:45.569Z,98131.06
2019-02-18T06:19:13.325Z,98130.56
2019-02-18T06:21:40.306Z,98135.85
2019-02-18T06:24:10.542Z,98129.22
2019-02-18T06:26:37.751Z,98133.70
2019-02-18T06:29:07.376Z,98126.19
2019-02-18T06:31:34.164Z,98132.97
2019-02-18T06:34:00.911Z,98135.80
2019-02-18T06:36:27.693Z,98137.78
2019-02-18T06:38:54.473Z,98145.72
2019-02-18T06:41:21.279Z,98144.39
2019-02-18T06:43:48.341Z,98144.73
2019-02-18T06:46:34.864Z,98145.21
2019-02-18T06:49:08.600Z,98151.00
2019-02-18T06:51:35.393Z,98155.92
2019-02-18T06:54:02.310Z,98147.75
2019-02-18T06:56:44.827Z,98150.53
2019-02-18T06:59:18.327Z,98152.28
2019-02-18T07:02:02.587Z,98155.38
2019-02-18T07:04:43.346Z,98161.74
2019-02-18T07:07:32.327Z,98163.47
2019-02-18T07:10:02.728Z,98171.45
2019-02-18T07:12:32.247Z,98167.14
2019-02-18T07:14:58.972Z,98170.00
2019-02-18T07:17:25.655Z,98166.20
2019-02-18T07:19:53.561Z,98164.61
2019-02-18T07:22:20.474Z,98155.30
2019-02-18T07:24:47.165Z,98156.14
2019-02-18T07:27:14.050Z,98145.70
2019-02-18T07:29:40.831Z,98148.41
2019-02-18T07:32:07.506Z,98143.37
2019-02-18T07:34:34.206Z,98151.16
2019-02-18T07:37:01.029Z,98147.29
2019-02-18T07:39:27.921Z,98150.24
2019-02-18T07:41:54.593Z,98148.84
2019-02-18T07:44:21.439Z,98139.65
2019-02-18T07:46:48.043Z,98138.92
2019-02-18T07:49:14.716Z,98138.23
2019-02-18T07:51:41.394Z,98138.00
2019-02-18T07:54:10.264Z,98136.58
2019-02-18T07:56:36.676Z,98134.18
2019-02-18T07:59:03.425Z,98130.03
2019-02-18T08:01:30.086Z,98126.98
2019-02-18T08:03:56.804Z,98116.52
2019-02-18T08:06:23.393Z,98124.38
2019-02-18T08:08:50.209Z,98121.78
2019-02-18T08:11:16.903Z,98123.97
2019-02-18T08:13:43.680Z,98124.73
2019-02-18T08:16:10.339Z,98125.78
2019-02-18T08:18:37.020Z,98129.72
2019-02-18T08:21:03.829Z,98127.59
2019-02-18T08:23:30.466Z,98130.70
2019-02-18T08:25:57.324Z,98128.84
2019-02-18T08:28:27.561Z,98120.42
2019-02-18T08:30:55.901Z,98127.22
2019-02-18T08:33:23.271Z,98127.09
2019-02-18T08:35:50.254Z,98121.02
2019-02-18T08:38:17.604Z,98123.16
2019-02-18T08:40:44.158Z,98118.51
2019-02-18T08:43:10.759Z,98120.52
2019-02-18T08:45:37.338Z,98116.98
2019-02-18T08:48:04.052Z,98118.87
2019-02-18T08:50:30.691Z,98113.12
2019-02-18T08:52:57.377Z,98112.34
2019-02-18T08:55:24.047Z,98115.69
2019-02-18T08:57:50.706Z,98108.77
2019-02-18T09:00:17.531Z,98100.91
2019-02-18T09:02:44.191Z,98094.05
2019-02-18T09:05:11.049Z,98086.16
2019-02-18T09:07:37.736Z,98081.25
2019-02-18T09:10:04.554Z,98079.83
2019-02-18T09:12:31.308Z,98073.98
2019-02-18T09:14:58.064Z,98077.31
2019-02-18T09:17:24.904Z,98082.50
2019-02-18T09:19:51.686Z,98076.16
2019-02-18T09:22:47.111Z,98073.73
2019-02-18T09:25:19.811Z,98071.59
2019-02-18T09:27:46.582Z,98066.25
2019-02-18T09:30:17.272Z,98063.41
2019-02-18T09:32:44.007Z,98063.89
2019-02-18T09:35:28.730Z,98054.79
2019-02-18T09:37:55.440Z,98056.20
2019-02-18T09:40:22.256Z,98058.84
2019-02-18T09:42:48.957Z,98061.25
2019-02-18T09:45:15.737Z,98062.21
2019-02-18T09:47:42.719Z,98063.48
2019-02-18T09:50:09.785Z,98062.67
2019-02-18T09:52:36.509Z,98069.78
2019-02-18T09:55:05.428Z,98069.60
2019-02-18T09:57:32.273Z,98073.89
2019-02-18T09:59:59.024Z,98069.16
2019-02-18T10:02:25.751Z,98068.11
2019-02-18T10:04:52.447Z,98073.98
2019-02-18T10:07:19.333Z,98066.28
2019-02-18T10:09:46.031Z,98064.17
2019-02-18T10:12:18.423Z,98062.04
2019-02-18T10:14:41.536Z,98060.34
2019-02-18T10:17:09.337Z,98057.80
2019-02-18T10:19:36.177Z,98051.41
2019-02-18T10:22:10.627Z,98051.27
2019-02-18T10:24:50.713Z,98043.63
2019-02-18T10:27:12.196Z,98040.47
2019-02-18T10:29:39.018Z,98039.47
2019-02-18T10:32:05.701Z,98039.90
2019-02-18T10:34:32.475Z,98039.22
2019-02-18T10:36:59.223Z,98034.37
2019-02-18T10:39:26.984Z,98030.27
2019-02-18T10:41:53.846Z,98032.66
2019-02-18T10:44:20.690Z,98025.84
2019-02-18T10:46:47.395Z,98026.09
2019-02-18T10:49:19.712Z,98022.42
2019-02-18T10:51:42.908Z,98017.19
2019-02-18T10:54:10.093Z,98018.54
2019-02-18T10:56:36.889Z,98014.09
2019-02-18T10:59:03.794Z,98005.26
2019-02-18T11:01:31.589Z,98006.38
2019-02-18T11:03:58.505Z,98009.80
2019-02-18T11:06:25.464Z,97999.47
2019-02-18T11:08:52.218Z,97994.70
2019-02-18T11:11:20.109Z,97987.38
2019-02-18T11:13:48.003Z,97980.08
2019-02-18T11:16:14.773Z,97971.13
2019-02-18T11:18:41.505Z,97972.16
2019-02-18T11:21:08.877Z,97972.61
2019-02-18T11:23:35.688Z,97964.05
2019-02-18T11:26:02.612Z,97960.84
2019-02-18T11:28:29.421Z,97955.45
2019-02-18T11:30:56.045Z,97951.05
2019-02-18T11:33:22.752Z,97953.20
2019-02-18T11:35:49.662Z,97944.63
2019-02-18T11:38:16.968Z,97938.88
2019-02-18T11:40:44.082Z,97938.20
2019-02-18T11:43:10.927Z,97918.74
2019-02-18T11:45:37.936Z,97918.74
2019-02-18T11:48:04.832Z,97921.03
2019-02-18T11:50:31.903Z,97916.30
2019-02-18T11:52:58.615Z,97910.36
2019-02-18T11:55:25.679Z,97911.39
2019-02-18T11:57:52.592Z,97903.98
2019-02-18T12:00:21.426Z,97899.28
2019-02-18T12:02:48.266Z,97889.42
2019-02-18T12:05:15.055Z,97889.42
2019-02-18T12:07:41.974Z,97881.41
2019-02-18T12:10:08.840Z,97878.08
2019-02-18T12:12:35.849Z,97876.39
2019-02-18T12:15:02.747Z,97880.60
2019-02-18T12:17:29.499Z,97875.85
2019-02-18T12:19:56.104Z,97880.69
2019-02-18T12:22:22.912Z,97877.50
2019-02-18T12:24:49.706Z,97875.88
2019-02-18T12:27:16.599Z,97868.00
2019-02-18T12:29:43.320Z,97863.78
2019-02-18T12:32:10.144Z,97865.11
2019-02-18T12:34:37.066Z,97866.87
2019-02-18T12:37:03.889Z,97858.36
2019-02-18T12:39:30.734Z,97856.70
2019-02-18T12:41:57.526Z,97852.83
2019-02-18T12:44:24.345Z,97852.08
2019-02-18T12:46:51.241Z,97846.38
2019-02-18T12:49:21.258Z,97838.65
2019-02-18T12:51:48.029Z,97841.92
2019-02-18T12:54:21.008Z,97837.27
2019-02-18T12:56:47.833Z,97825.23
2019-02-18T12:59:14.523Z,97821.13
2019-02-18T13:01:41.350Z,97816.13
2019-02-18T13:04:08.046Z,97810.77
2019-02-18T13:06:35.110Z,97807.56
2019-02-18T13:09:03.744Z,97803.97
2019-02-18T13:11:30.864Z,97800.96
2019-02-18T13:13:57.688Z,97798.09
2019-02-18T13:16:24.370Z,97797.97
2019-02-18T13:18:51.102Z,97793.53
2019-02-18T13:21:17.900Z,97794.17
2019-02-18T13:23:44.979Z,97781.84
2019-02-18T13:26:12.125Z,97777.44
2019-02-18T13:28:38.895Z,97775.86
2019-02-18T13:31:07.668Z,97775.11
2019-02-18T13:33:34.663Z,97766.88
2019-02-18T13:36:01.471Z,97764.62
2019-02-18T13:38:28.045Z,97761.16
2019-02-18T13:40:56.028Z,97763.17
2019-02-18T13:43:26.067Z,97757.74
2019-02-18T13:45:53.070Z,97759.11
2019-02-18T13:48:20.398Z,97761.45
2019-02-18T13:50:48.793Z,97756.78
2019-02-18T13:53:15.516Z,97754.48
2019-02-18T13:55:42.169Z,97767.17
2019-02-18T13:58:08.885Z,97763.75
2019-02-18T14:00:36.067Z,97755.94
2019-02-18T14:03:02.750Z,97754.36
2019-02-18T14:05:29.407Z,97747.73
2019-02-18T14:07:56.573Z,97745.77
2019-02-18T14:10:23.302Z,97744.45
2019-02-18T14:12:50.023Z,97744.30
2019-02-18T14:15:17.392Z,97743.38
2019-02-18T14:17:44.177Z,97743.65
2019-02-18T14:20:11.406Z,97748.34
2019-02-18T14:22:38.317Z,97744.84
2019-02-18T14:25:05.101Z,97740.03
2019-02-18T14:27:32.102Z,97733.50
2019-02-18T14:29:58.867Z,97735.55
2019-02-18T14:32:25.518Z,97732.77
2019-02-18T14:34:52.247Z,97733.39
2019-02-18T14:37:19.144Z,97728.44
2019-02-18T14:39:46.226Z,97730.43
2019-02-18T14:42:13.045Z,97722.02
2019-02-18T14:44:40.372Z,97723.52
2019-02-18T14:47:07.282Z,97719.14
2019-02-18T14:49:34.058Z,97709.89
2019-02-18T14:52:01.006Z,97710.64
2019-02-18T14:54:27.694Z,97704.09
2019-02-18T14:56:54.371Z,97706.23
2019-02-18T14:59:21.136Z,97712.89
2019-02-18T15:01:47.810Z,97713.64
2019-02-18T15:04:14.778Z,97705.70
2019-02-18T15:06:41.336Z,97702.72
2019-02-18T15:09:15.327Z,97706.15
2019-02-18T15:11:42.220Z,97704.84
2019-02-18T15:14:08.998Z,97701.55
2019-02-18T15:16:35.731Z,97702.97
2019-02-18T15:19:02.481Z,97702.84
2019-02-18T15:21:30.728Z,97704.05
2019-02-18T15:23:57.569Z,97692.63
2019-02-18T15:26:24.574Z,97694.39
2019-02-18T15:28:51.346Z,97683.34
2019-02-18T15:31:19.282Z,97681.20
2019-02-18T15:33:46.045Z,97672.42
2019-02-18T15:36:12.891Z,97676.56
2019-02-18T15:38:42.267Z,97670.56
2019-02-18T15:41:09.064Z,97670.76
2019-02-18T15:43:35.936Z,97675.14
2019-02-18T15:46:02.796Z,97669.19
2019-02-18T15:48:29.754Z,97673.92
2019-02-18T15:50:57.550Z,97668.50
2019-02-18T15:53:24.248Z,97671.14
2019-02-18T15:55:51.612Z,97670.00
2019-02-18T15:58:18.428Z,97661.87
2019-02-18T16:00:45.130Z,97663.44
2019-02-18T16:03:11.979Z,97659.61
2019-02-18T16:05:38.652Z,97662.95
2019-02-18T16:08:06.565Z,97663.38
2019-02-18T16:10:33.344Z,97664.06
2019-02-18T16:13:00.044Z,97659.24
2019-02-18T16:15:27.118Z,97653.87
2019-02-18T16:17:55.143Z,97650.69
2019-02-18T16:20:21.961Z,97650.50
2019-02-18T16:22:48.727Z,97644.63
2019-02-18T16:25:17.241Z,97649.58
2019-02-18T16:27:44.000Z,97647.70
2019-02-18T16:30:12.035Z,97647.20
2019-02-18T16:32:39.123Z,97651.58
2019-02-18T16:35:06.124Z,97647.22
2019-02-18T16:37:33.409Z,97647.20
2019-02-18T16:40:00.004Z,97653.67
2019-02-18T16:42:26.998Z,97660.95
2019-02-18T16:44:56.581Z,97663.13
2019-02-18T16:47:23.321Z,97659.80
2019-02-18T16:49:50.261Z,97663.53
2019-02-18T16:52:16.906Z,97658.52
2019-02-18T16:54:43.842Z,97664.35
2019-02-18T16:57:10.505Z,97665.00
2019-02-18T16:59:37.220Z,97666.80
2019-02-18T17:02:03.891Z,97668.55
2019-02-18T17:04:30.661Z,97666.80
2019-02-18T17:06:57.483Z,97671.04
2019-02-18T17:09:24.294Z,97670.17
2019-02-18T17:11:51.113Z,97674.67
2019-02-18T17:14:17.799Z,97673.80
2019-02-18T17:16:44.622Z,97671.27
2019-02-18T17:19:11.260Z,97673.91
2019-02-18T17:21:38.121Z,97672.72
2019-02-18T17:24:04.961Z,97672.09
2019-02-18T17:26:32.112Z,97675.01
2019-02-18T17:28:59.087Z,97673.28
2019-02-18T17:31:25.851Z,97676.41
2019-02-18T17:33:52.653Z,97671.19
2019-02-18T17:36:20.469Z,97666.01
2019-02-18T17:38:47.080Z,97672.36
2019-02-18T17:41:13.761Z,97666.57
2019-02-18T17:43:40.582Z,97670.21
2019-02-18T17:46:07.792Z,97666.91
2019-02-18T17:48:34.614Z,97665.48
2019-02-18T17:51:01.482Z,97667.77
2019-02-18T17:53:28.197Z,97662.01
2019-02-18T17:55:54.855Z,97662.66
2019-02-18T17:58:21.660Z,97656.66
2019-02-18T18:00:50.828Z,97657.67
2019-02-18T18:03:17.559Z,97666.97
2019-02-18T18:05:45.962Z,97668.72
2019-02-18T18:08:12.757Z,97672.05
2019-02-18T18:10:40.096Z,97667.95
2019-02-18T18:13:07.610Z,97669.48
2019-02-18T18:15:34.397Z,97671.53
2019-02-18T18:18:01.323Z,97671.09
2019-02-18T18:20:28.093Z,97666.48
2019-02-18T18:22:55.441Z,97666.03
2019-02-18T18:25:22.360Z,97663.09
2019-02-18T18:27:49.827Z,97664.39
2019-02-18T18:30:16.684Z,97661.92
2019-02-18T18:32:45.167Z,97660.84
2019-02-18T18:35:12.406Z,97655.31
2019-02-18T18:37:42.280Z,97657.88
2019-02-18T18:40:10.692Z,97649.41
2019-02-18T18:42:37.601Z,97652.81
2019-02-18T18:45:05.101Z,97650.48
2019-02-18T18:47:31.949Z,97652.17
2019-02-18T18:49:58.800Z,97648.73
2019-02-18T18:52:25.610Z,97652.53
2019-02-18T18:54:52.397Z,97654.14
2019-02-18T18:57:20.770Z,97659.80
2019-02-18T18:59:47.715Z,97662.57
2019-02-18T19:02:14.457Z,97659.47
2019-02-18T19:04:41.419Z,97651.88
2019-02-18T19:07:08.256Z,97655.61
2019-02-18T19:09:35.091Z,97647.48
2019-02-18T19:12:02.148Z,97647.43
2019-02-18T19:14:30.159Z,97651.98
2019-02-18T19:16:57.477Z,97645.11
2019-02-18T19:19:24.460Z,97646.27
2019-02-18T19:21:51.226Z,97644.05
2019-02-18T19:24:17.876Z,97644.56
2019-02-18T19:26:44.501Z,97639.06
2019-02-18T19:29:11.344Z,97637.59
2019-02-18T19:31:38.650Z,97639.20
2019-02-18T19:34:05.572Z,97641.33
2019-02-18T19:36:32.395Z,97646.80
2019-02-18T19:38:59.711Z,97648.58
2019-02-18T19:41:26.723Z,97651.88
2019-02-18T19:43:53.574Z,97659.85
2019-02-18T19:46:20.422Z,97669.03
2019-02-18T19:48:47.456Z,97666.83
2019-02-18T19:51:15.682Z,97666.69
2019-02-18T19:53:42.509Z,97676.52
2019-02-18T19:56:09.390Z,97672.36
2019-02-18T19:58:36.218Z,97677.80
2019-02-18T20:01:03.054Z,97683.04
2019-02-18T20:03:29.793Z,97675.89
2019-02-18T20:05:56.675Z,97668.52
2019-02-18T20:08:23.507Z,97671.72
2019-02-18T20:10:50.320Z,97677.23
2019-02-18T20:13:17.225Z,97676.11
2019-02-18T20:15:45.971Z,97672.91
2019-02-18T20:18:13.848Z,97679.84
2019-02-18T20:20:40.563Z,97678.30
2019-02-18T20:23:07.661Z,97686.11
2019-02-18T20:25:34.453Z,97680.81
2019-02-18T20:28:01.154Z,97680.06
2019-02-18T20:30:30.592Z,97678.95
2019-02-18T20:32:57.491Z,97678.58
2019-02-18T20:35:24.316Z,97678.63
2019-02-18T20:37:51.025Z,97676.23
2019-02-18T20:40:19.049Z,97677.06
2019-02-18T20:42:46.053Z,97677.84
2019-02-18T20:45:12.928Z,97675.83
2019-02-18T20:47:40.002Z,97678.58
2019-02-18T20:50:08.157Z,97681.91
2019-02-18T20:52:35.006Z,97680.92
2019-02-18T20:55:02.079Z,97678.89
2019-02-18T20:57:29.992Z,97679.84
2019-02-18T20:59:56.950Z,97678.20
2019-02-18T21:02:23.753Z,97677.60
2019-02-18T21:04:50.590Z,97679.31
2019-02-18T21:07:17.357Z,97680.17
2019-02-18T21:09:45.456Z,97673.19
2019-02-18T21:12:19.752Z,97673.92
2019-02-18T21:14:44.389Z,97667.97
2019-02-18T21:17:11.658Z,97673.14
2019-02-18T21:19:38.513Z,97674.91
2019-02-18T21:22:06.298Z,97672.66
2019-02-18T21:24:33.142Z,97669.41
2019-02-18T21:27:00.416Z,97680.32
2019-02-18T21:29:27.330Z,97679.62
2019-02-18T21:31:54.784Z,97673.88
2019-02-18T21:34:21.598Z,97681.91
2019-02-18T21:36:48.492Z,97676.37
2019-02-18T21:39:15.345Z,97676.89
2019-02-18T21:41:43.410Z,97677.63
2019-02-18T21:44:10.304Z,97676.41
2019-02-18T21:46:39.216Z,97677.50
2019-02-18T21:49:06.165Z,97680.69
2019-02-18T21:51:33.408Z,97685.00
2019-02-18T21:54:00.441Z,97687.16
2019-02-18T21:56:27.387Z,97687.16
2019-02-18T21:58:54.632Z,97684.91
2019-02-18T22:01:24.901Z,97689.55
2019-02-18T22:03:52.947Z,97687.22
2019-02-18T22:06:23.031Z,97681.98
2019-02-18T22:08:49.939Z,97683.02
2019-02-18T22:11:17.207Z,97681.08
2019-02-18T22:13:44.158Z,97679.19
2019-02-18T22:16:12.516Z,97678.80
2019-02-18T22:18:39.437Z,97674.48
2019-02-18T22:21:06.407Z,97677.47
2019-02-18T22:23:34.255Z,97688.15
2019-02-18T22:26:01.654Z,97690.63
2019-02-18T22:28:28.367Z,97683.34
2019-02-18T22:30:55.184Z,97687.34
2019-02-18T22:33:22.140Z,97684.27
2019-02-18T22:35:48.902Z,97685.34
2019-02-18T22:38:15.597Z,97680.41
2019-02-18T22:40:42.594Z,97680.31
2019-02-18T22:43:09.272Z,97680.52
2019-02-18T22:45:36.486Z,97674.17
2019-02-18T22:48:03.318Z,97676.53
2019-02-18T22:50:31.107Z,97672.42
2019-02-18T22:52:58.079Z,97668.13
2019-02-18T22:55:24.823Z,97675.05
2019-02-18T22:57:51.504Z,97683.56
2019-02-18T23:01:10.979Z,97690.52
2019-02-18T23:03:37.841Z,97685.31
2019-02-18T23:06:04.622Z,97681.83
2019-02-18T23:08:31.364Z,97686.14
2019-02-18T23:10:58.479Z,97685.52
2019-02-18T23:13:25.180Z,97683.47
2019-02-18T23:15:52.064Z,97682.55
2019-02-18T23:18:18.759Z,97688.20
2019-02-18T23:20:45.550Z,97694.25
2019-02-18T23:23:12.304Z,97698.67
2019-02-18T23:25:39.201Z,97693.13
2019-02-18T23:28:06.038Z,97703.70
2019-02-18T23:30:33.118Z,97700.45
2019-02-18T23:32:59.672Z,97696.65
2019-02-18T23:35:26.437Z,97696.55
2019-02-18T23:37:53.247Z,97690.08
2019-02-18T23:40:19.935Z,97692.34
2019-02-18T23:42:46.683Z,97692.03
2019-02-18T23:45:13.540Z,97701.98
2019-02-18T23:47:40.219Z,97700.03
2019-02-18T23:50:07.027Z,97705.77
2019-02-18T23:52:33.793Z,97703.42
2019-02-18T23:55:00.674Z,97701.36
2019-02-18T23:57:27.940Z,97699.72
2019-02-18T23:59:54.666Z,97696.95
